Time;durP1;ratioP1;P1;durP2;ratioP2;P2;SDS_P1;SDS_P2;PMS_P1;PMS_P2;Temp;Humidity;BMP_temperature;BMP_pressure;BME280_temperature;BME280_humidity;BME280_pressure;Samples;Min_cycle;Max_cycle;Signal;HPM_P1;HPM_P2
2021/10/09 00:02:10;;;;;;;9.10;4.92;;;;;;;6.26;48.82;101989.33;1742986;81;21829;-71
2021/10/09 00:04:36;;;;;;;8.58;5.03;;;;;;;6.23;49.07;101984.20;1751235;81;20991;-69
2021/10/09 00:07:03;;;;;;;8.88;4.70;;;;;;;6.19;49.01;101985.23;1736701;81;21060;-69
2021/10/09 00:09:29;;;;;;;8.38;4.70;;;;;;;6.16;49.07;101984.47;1741643;81;21518;-69
2021/10/09 00:11:58;;;;;;;10.58;4.78;;;;;;;6.09;49.15;101983.84;1751398;81;21053;-69
2021/10/09 00:14:24;;;;;;;10.75;4.35;;;;;;;6.07;49.17;101985.64;1754813;81;22826;-71
2021/10/09 00:16:51;;;;;;;9.58;4.80;;;;;;;6.05;49.42;101988.78;1701866;81;21023;-70
2021/10/09 00:19:17;;;;;;;10.93;4.95;;;;;;;5.99;49.69;101983.77;1733778;81;21000;-69
2021/10/09 00:21:44;;;;;;;12.18;4.60;;;;;;;5.93;49.93;101982.66;1749257;81;20996;-69
2021/10/09 00:24:18;;;;;;;12.58;4.75;;;;;;;5.89;50.06;101981.03;1726774;83;21518;-70
2021/10/09 00:26:46;;;;;;;10.18;4.53;;;;;;;5.84;50.03;101982.94;1739026;81;21868;-70
2021/10/09 00:29:13;;;;;;;9.98;4.97;;;;;;;5.83;49.79;101969.42;1751492;81;21451;-71
2021/10/09 00:31:39;;;;;;;9.23;4.90;;;;;;;5.79;49.58;101979.17;1743471;81;21063;-69
2021/10/09 00:34:05;;;;;;;10.70;4.53;;;;;;;5.80;49.50;101972.16;1766939;81;20936;-70
2021/10/09 00:36:32;;;;;;;8.95;4.33;;;;;;;5.81;49.53;101971.25;1824384;78;21042;-71
2021/10/09 00:39:00;;;;;;;11.33;4.58;;;;;;;5.81;49.52;101969.94;1745240;81;23481;-68
2021/10/09 00:41:26;;;;;;;9.15;4.30;;;;;;;5.77;49.25;101963.92;1765401;81;21124;-70
2021/10/09 00:43:53;;;;;;;8.98;4.40;;;;;;;5.75;49.14;101967.91;1803321;78;21007;-69
2021/10/09 00:46:19;;;;;;;8.35;4.53;;;;;;;5.74;49.02;101972.75;1824671;78;21030;-70
2021/10/09 00:48:47;;;;;;;8.55;4.15;;;;;;;5.71;49.15;101968.94;1816860;78;20948;-71
2021/10/09 00:51:13;;;;;;;8.30;4.28;;;;;;;5.71;49.08;101968.08;1809132;78;22162;-70
2021/10/09 00:53:40;;;;;;;10.80;4.28;;;;;;;5.71;48.98;101961.53;1786562;78;20979;-71
2021/10/09 00:56:08;;;;;;;8.30;4.17;;;;;;;5.71;49.08;101971.56;1819343;78;21369;-70
2021/10/09 00:58:36;;;;;;;8.45;4.25;;;;;;;5.71;49.16;101973.33;1812013;78;21048;-70
2021/10/09 01:01:03;;;;;;;10.63;4.22;;;;;;;5.71;49.41;101967.62;1820600;78;20994;-69
2021/10/09 01:03:30;;;;;;;11.65;4.20;;;;;;;5.71;49.53;101962.38;1811733;78;22288;-69
2021/10/09 01:05:57;;;;;;;7.03;4.03;;;;;;;5.71;49.47;101971.56;1821739;78;21179;-70
2021/10/09 01:08:24;;;;;;;8.68;4.10;;;;;;;5.72;49.45;101968.02;1802030;78;20987;-70
2021/10/09 01:10:51;;;;;;;9.35;4.10;;;;;;;5.73;49.61;101968.42;1822441;78;21053;-70
2021/10/09 01:13:18;;;;;;;8.95;3.95;;;;;;;5.74;49.79;101963.58;1826660;78;21038;-70
2021/10/09 01:15:46;;;;;;;11.68;4.28;;;;;;;5.75;49.61;101964.44;1807973;78;22637;-70
2021/10/09 01:18:20;;;;;;;10.00;3.75;;;;;;;5.77;49.63;101958.67;1819870;78;20963;-76
2021/10/09 01:20:58;;;;;;;10.30;4.25;;;;;;;5.80;49.67;101962.98;1807471;78;21073;-70
2021/10/09 01:23:26;;;;;;;7.40;3.95;;;;;;;5.79;49.32;101959.51;1809422;78;21037;-70
2021/10/09 01:25:53;;;;;;;9.33;3.85;;;;;;;5.79;48.93;101964.75;1817881;78;20955;-69
2021/10/09 01:28:20;;;;;;;8.25;3.80;;;;;;;5.78;48.60;101964.77;1811416;78;21857;-70
2021/10/09 01:30:47;;;;;;;8.68;3.80;;;;;;;5.73;48.83;101967.11;1805081;78;21090;-70
2021/10/09 01:33:14;;;;;;;11.18;3.95;;;;;;;5.73;48.92;101963.64;1819343;78;21405;-70
2021/10/09 01:35:53;;;;;;;8.28;3.55;;;;;;;5.70;48.65;101961.98;1797966;78;21039;-70
2021/10/09 01:38:24;;;;;;;8.60;3.50;;;;;;;5.70;48.56;101963.75;1724713;81;21015;-70
2021/10/09 01:40:52;;;;;;;11.10;3.65;;;;;;;5.66;48.62;101962.98;1716351;81;22563;-70
2021/10/09 01:43:19;;;;;;;11.28;4.10;;;;;;;5.63;48.60;101962.23;1749021;81;21043;-71
2021/10/09 01:45:46;;;;;;;7.08;3.35;;;;;;;5.60;48.39;101959.27;1751251;81;21013;-70
2021/10/09 01:48:14;;;;;;;9.08;3.67;;;;;;;5.59;48.48;101968.02;1754248;81;20952;-70
2021/10/09 01:50:41;;;;;;;6.55;3.67;;;;;;;5.56;48.72;101968.13;1746202;81;21097;-69
2021/10/09 01:53:08;;;;;;;6.40;3.85;;;;;;;5.53;48.96;101962.14;1734394;81;22186;-70
2021/10/09 01:55:37;;;;;;;10.72;4.10;;;;;;;5.51;49.17;101961.34;1732458;81;21114;-68
2021/10/09 01:58:05;;;;;;;6.83;3.60;;;;;;;5.46;49.57;101958.85;1763215;81;20999;-69
2021/10/09 02:00:33;;;;;;;7.40;3.33;;;;;;;5.41;49.56;101956.40;1760777;81;21477;-69
2021/10/09 02:03:03;;;;;;;6.97;3.67;;;;;;;5.37;49.71;101956.53;1762122;81;21031;-70
2021/10/09 02:05:28;;;;;;;8.58;3.83;;;;;;;5.33;49.75;101953.62;1761280;81;22219;-70
2021/10/09 02:07:55;;;;;;;9.85;3.80;;;;;;;5.28;49.87;101954.20;1735235;81;21030;-69
2021/10/09 02:10:22;;;;;;;10.53;3.42;;;;;;;5.25;49.88;101959.55;1749976;81;20980;-69
2021/10/09 02:12:53;;;;;;;8.00;3.60;;;;;;;5.22;49.97;101950.04;1760719;81;21455;-69
2021/10/09 02:15:25;;;;;;;6.75;3.75;;;;;;;5.20;50.06;101953.13;1761123;81;20971;-69
2021/10/09 02:18:07;;;;;;;7.78;3.90;;;;;;;5.18;50.13;101950.57;1762748;81;21858;-69
2021/10/09 02:25:50;;;;;;;6.85;3.50;;;;;;;5.06;50.38;101957.52;1735027;81;21082;-69
2021/10/09 02:28:19;;;;;;;6.55;3.50;;;;;;;5.05;50.32;101954.49;1749928;81;21367;-69
2021/10/09 02:30:46;;;;;;;10.30;3.70;;;;;;;5.06;50.36;101955.34;1739037;80;21833;-70
2021/10/09 02:33:14;;;;;;;11.18;3.80;;;;;;;5.02;50.36;101956.33;1729844;81;20960;-70
2021/10/09 02:35:40;;;;;;;6.92;3.47;;;;;;;4.96;50.51;101959.16;1729945;81;21522;-69
2021/10/09 02:38:07;;;;;;;7.70;3.83;;;;;;;4.92;50.37;101960.99;1732100;81;21371;-72
2021/10/09 02:40:37;;;;;;;8.28;3.98;;;;;;;4.92;50.45;101959.68;1729682;81;20948;-70
2021/10/09 02:43:03;;;;;;;8.68;3.50;;;;;;;4.91;50.34;101955.35;1729669;81;21833;-68
2021/10/09 02:45:30;;;;;;;8.88;3.60;;;;;;;4.88;50.53;101962.00;1753636;81;22414;-70
2021/10/09 02:48:00;;;;;;;10.63;3.80;;;;;;;4.82;50.88;101956.48;1733601;81;21433;-69
2021/10/09 02:50:28;;;;;;;11.25;3.62;;;;;;;4.79;50.87;101962.28;1703112;83;20998;-70
2021/10/09 02:52:55;;;;;;;5.97;3.12;;;;;;;4.74;50.92;101961.58;1730242;81;21019;-70
2021/10/09 02:55:21;;;;;;;6.45;3.35;;;;;;;4.72;50.77;101960.28;1731741;81;22915;-69
2021/10/09 02:57:49;;;;;;;6.75;3.65;;;;;;;4.72;50.67;101964.21;1757077;81;20950;-70
2021/10/09 03:00:17;;;;;;;6.20;3.80;;;;;;;4.71;50.69;101962.95;1755576;81;20964;-70
2021/10/09 03:02:43;;;;;;;11.03;3.50;;;;;;;4.70;50.73;101962.55;1727839;81;20956;-70
2021/10/09 03:05:12;;;;;;;6.42;3.87;;;;;;;4.68;50.94;101970.45;1725556;82;21023;-70
2021/10/09 03:07:39;;;;;;;10.50;3.75;;;;;;;4.67;51.01;101970.05;1732137;81;22279;-70
2021/10/09 03:10:08;;;;;;;8.95;4.33;;;;;;;4.66;50.96;101968.34;1727726;83;20973;-70
2021/10/09 03:12:35;;;;;;;9.95;4.03;;;;;;;4.64;50.98;101974.08;1759525;81;20940;-69
2021/10/09 03:15:01;;;;;;;8.10;3.40;;;;;;;4.65;50.97;101966.63;1728012;83;21056;-70
2021/10/09 03:17:29;;;;;;;7.25;3.65;;;;;;;4.67;51.04;101970.05;1758371;81;21035;-70
2021/10/09 03:19:55;;;;;;;6.60;3.60;;;;;;;4.66;51.05;101972.72;1703262;83;22203;-70
2021/10/09 03:22:22;;;;;;;12.47;4.03;;;;;;;4.66;51.05;101972.72;1742831;81;20924;-69
2021/10/09 03:24:48;;;;;;;9.35;4.10;;;;;;;4.64;51.17;101983.69;1714473;83;21040;-70
2021/10/09 03:27:15;;;;;;;11.35;4.10;;;;;;;4.63;51.21;101981.95;1727599;83;21371;-69
2021/10/09 03:29:41;;;;;;;7.30;3.83;;;;;;;4.61;51.15;101980.69;1717383;82;21027;-69
2021/10/09 03:32:09;;;;;;;6.80;3.95;;;;;;;4.60;51.15;101978.52;1742529;80;21835;-76
2021/10/09 03:34:37;;;;;;;6.78;3.90;;;;;;;4.58;50.90;101982.09;1813494;78;20995;-71
2021/10/09 03:37:05;;;;;;;8.43;3.80;;;;;;;4.57;50.96;101983.00;1802857;78;20952;-70
2021/10/09 03:39:34;;;;;;;7.95;3.47;;;;;;;4.56;51.05;101977.36;1807777;78;21590;-70
2021/10/09 03:42:17;;;;;;;10.48;3.60;;;;;;;4.54;51.00;101981.34;1793292;80;20984;-70
2021/10/09 03:44:49;;;;;;;9.90;4.00;;;;;;;4.51;50.88;101985.33;1809552;78;22662;-69
2021/10/09 03:47:22;;;;;;;9.93;3.92;;;;;;;4.47;50.72;101979.78;1797914;78;21027;-69
2021/10/09 03:49:54;;;;;;;8.35;3.85;;;;;;;4.47;50.97;101978.48;1783405;80;20987;-69
2021/10/09 03:52:35;;;;;;;7.87;3.80;;;;;;;4.44;51.04;101977.69;1762059;81;21485;-69
2021/10/09 03:54:50;;;;;;;10.20;4.30;;;;;;;4.41;51.22;101981.71;1798469;78;21557;-70
2021/10/09 03:57:17;;;;;;;7.45;3.52;;;;;;;4.39;51.18;101983.52;1818030;78;21761;-70
2021/10/09 03:59:44;;;;;;;9.55;3.98;;;;;;;4.37;51.19;101984.88;1821915;78;20983;-69
2021/10/09 04:02:11;;;;;;;7.33;3.30;;;;;;;4.33;51.15;101980.61;1784863;80;21430;-69
2021/10/09 04:04:37;;;;;;;6.90;3.70;;;;;;;4.30;51.12;101981.56;1745218;80;20965;-70
2021/10/09 04:07:04;;;;;;;9.38;3.50;;;;;;;4.25;51.14;101976.06;1798414;78;20955;-70
2021/10/09 04:09:31;;;;;;;8.13;3.60;;;;;;;4.20;51.29;101974.87;1800303;78;22753;-70
2021/10/09 04:11:59;;;;;;;6.50;3.35;;;;;;;4.14;51.16;101977.64;1791268;78;21030;-72
2021/10/09 04:14:25;;;;;;;8.03;3.35;;;;;;;4.13;51.27;101990.76;1777975;80;20948;-69
2021/10/09 04:16:54;;;;;;;9.95;3.70;;;;;;;4.10;51.02;101989.09;1791589;80;20936;-69
2021/10/09 04:19:20;;;;;;;7.15;3.35;;;;;;;4.10;51.05;101983.01;1793359;78;21445;-70
2021/10/09 04:21:47;;;;;;;6.70;3.30;;;;;;;4.09;51.20;101987.83;1791419;80;22208;-70
2021/10/09 04:24:18;;;;;;;7.87;3.37;;;;;;;4.08;51.07;101985.67;1761349;80;20948;-71
2021/10/09 04:26:42;;;;;;;7.87;3.65;;;;;;;4.05;51.13;101981.80;1763492;80;21043;-69
2021/10/09 04:29:09;;;;;;;9.60;3.72;;;;;;;4.03;51.28;101988.39;1731757;82;21012;-70
2021/10/09 04:31:35;;;;;;;6.22;3.55;;;;;;;4.02;51.38;101986.67;1811500;78;20983;-69
2021/10/09 04:34:02;;;;;;;6.72;3.60;;;;;;;4.00;51.50;101987.62;1804962;78;21819;-69
2021/10/09 04:36:30;;;;;;;12.82;3.30;;;;;;;3.97;51.63;101988.57;1727167;82;21052;-70
2021/10/09 04:38:58;;;;;;;12.23;3.87;;;;;;;3.96;51.64;101989.47;1734520;81;21098;-69
2021/10/09 04:41:25;;;;;;;6.83;3.65;;;;;;;3.95;51.59;101989.03;1732591;81;21130;-69
2021/10/09 04:43:53;;;;;;;6.72;3.55;;;;;;;3.97;51.63;101990.33;1745541;81;21051;-69
2021/10/09 04:46:20;;;;;;;7.72;3.17;;;;;;;3.98;51.65;101991.59;1743777;81;21721;-71
2021/10/09 04:48:48;;;;;;;7.92;3.35;;;;;;;3.97;51.38;101992.48;1781399;80;20937;-74
2021/10/09 04:51:14;;;;;;;9.93;3.33;;;;;;;3.96;51.34;101996.00;1753148;81;21008;-69
2021/10/09 04:53:41;;;;;;;7.75;3.50;;;;;;;3.99;51.42;101997.67;1731913;81;21424;-69
2021/10/09 04:56:07;;;;;;;9.70;4.03;;;;;;;4.00;51.52;102002.86;1733558;81;20973;-70
2021/10/09 04:58:35;;;;;;;7.80;3.33;;;;;;;4.00;51.48;102001.55;1760194;81;21829;-69
2021/10/09 05:01:02;;;;;;;10.15;3.58;;;;;;;4.02;51.63;102003.67;1763532;81;20948;-69
2021/10/09 05:03:29;;;;;;;7.90;3.72;;;;;;;4.02;51.49;102001.50;1754858;81;21545;-70
2021/10/09 05:05:56;;;;;;;6.75;3.60;;;;;;;4.05;51.42;102007.09;1735497;81;21047;-70
2021/10/09 05:08:24;;;;;;;8.00;3.77;;;;;;;4.06;51.49;101998.38;1744919;81;21063;-69
2021/10/09 05:10:50;;;;;;;9.45;3.55;;;;;;;4.06;51.50;102010.15;1736416;81;22505;-69
2021/10/09 05:13:17;;;;;;;12.03;3.80;;;;;;;4.08;51.57;102014.88;1742997;81;20964;-70
2021/10/09 05:15:46;;;;;;;9.23;4.15;;;;;;;4.11;51.57;102010.87;1761393;81;21077;-70
2021/10/09 05:18:14;;;;;;;9.78;3.80;;;;;;;4.15;51.75;102009.45;1738313;81;20963;-71
2021/10/09 05:20:41;;;;;;;4.97;3.10;;;;;;;4.19;51.85;102009.77;1750626;81;21019;-70
2021/10/09 05:23:10;;;;;;;5.97;3.42;;;;;;;4.21;51.67;102011.89;1730360;81;21695;-68
2021/10/09 05:25:38;;;;;;;10.93;3.70;;;;;;;4.25;51.60;102013.98;1760694;81;21057;-69
2021/10/09 05:28:22;;;;;;;5.95;3.25;;;;;;;4.29;51.38;102013.84;1746779;81;20951;-70
2021/10/09 05:30:50;;;;;;;10.32;3.77;;;;;;;4.35;51.24;102017.22;1763352;81;21448;-68
2021/10/09 05:33:25;;;;;;;6.70;3.42;;;;;;;4.41;51.27;102013.95;1745879;80;20992;-69
2021/10/09 05:35:47;;;;;;;9.23;3.27;;;;;;;4.49;51.04;102011.98;1734250;82;21888;-69
2021/10/09 05:38:14;;;;;;;7.35;3.42;;;;;;;4.55;50.62;102026.67;1746530;81;21439;-69
2021/10/09 05:40:41;;;;;;;7.33;3.37;;;;;;;4.63;50.37;102019.89;1765230;81;21055;-71
2021/10/09 05:43:08;;;;;;;8.08;3.37;;;;;;;4.65;50.02;102021.59;1750552;81;20964;-70
2021/10/09 05:45:34;;;;;;;5.85;3.45;;;;;;;4.69;49.85;102026.27;1745983;81;20987;-72
2021/10/09 05:48:02;;;;;;;9.98;3.65;;;;;;;4.75;50.07;102026.11;1751987;81;21780;-71
2021/10/09 05:50:37;;;;;;;6.97;3.67;;;;;;;4.82;49.82;102021.08;1752882;81;20999;-71
2021/10/09 05:56:00;;;;;;;9.45;3.42;;;;;;;4.94;49.28;102023.81;1751887;81;20952;-72
2021/10/09 05:58:16;;;;;;;9.08;3.55;;;;;;;5.01;49.41;102029.25;1739032;80;20937;-72
2021/10/09 07:00:09;;;;;;;6.75;2.87;;;;;;;6.70;44.87;102027.56;1754372;81;21057;-70
2021/10/09 07:02:39;;;;;;;6.62;3.12;;;;;;;6.73;44.61;102021.33;1739796;81;21075;-71
2021/10/09 07:05:07;;;;;;;9.23;3.12;;;;;;;6.77;44.81;102015.07;1761902;81;20980;-70
2021/10/09 07:07:41;;;;;;;6.83;3.00;;;;;;;6.83;44.73;102014.36;1759099;81;21854;-73
2021/10/09 07:10:08;;;;;;;9.78;3.10;;;;;;;6.92;44.42;102009.68;1732449;81;21070;-73
2021/10/09 07:12:37;;;;;;;7.03;3.00;;;;;;;7.01;44.64;102002.30;1703536;82;21063;-74
2021/10/09 07:15:05;;;;;;;9.03;3.02;;;;;;;7.06;44.41;102004.77;1721410;81;21098;-71
2021/10/09 07:17:32;;;;;;;7.22;3.02;;;;;;;7.07;44.19;101997.28;1733636;82;21055;-71
2021/10/09 07:19:59;;;;;;;7.80;3.00;;;;;;;7.07;44.09;101997.28;1734641;81;21891;-71
2021/10/09 07:22:26;;;;;;;8.55;3.15;;;;;;;7.11;44.08;101996.23;1733792;82;21011;-71
2021/10/09 07:24:54;;;;;;;11.10;2.98;;;;;;;7.14;44.04;101998.30;1733705;82;21553;-70
2021/10/09 07:27:20;;;;;;;12.47;3.10;;;;;;;7.18;44.20;102001.20;1704827;82;21497;-71
2021/10/09 07:29:47;;;;;;;8.55;3.10;;;;;;;7.24;44.10;102006.68;1736531;81;20979;-69
2021/10/09 07:32:13;;;;;;;12.33;3.37;;;;;;;7.32;44.39;102011.61;1754689;81;21789;-70
2021/10/09 07:34:40;;;;;;;14.05;3.50;;;;;;;7.40;44.13;102018.27;1758364;81;21008;-69
2021/10/09 07:37:06;;;;;;;12.33;3.45;;;;;;;7.51;43.94;102015.67;1748458;81;21079;-73
2021/10/09 07:39:33;;;;;;;12.13;2.87;;;;;;;7.61;43.54;102011.75;1738860;81;21075;-71
2021/10/09 07:42:00;;;;;;;10.43;3.12;;;;;;;7.70;43.50;102021.44;1728747;81;21039;-70
2021/10/09 07:44:27;;;;;;;11.20;2.83;;;;;;;7.80;43.53;102014.48;1734535;81;21793;-71
2021/10/09 07:46:53;;;;;;;8.50;3.00;;;;;;;7.90;43.62;102019.75;1716370;81;21506;-73
2021/10/09 07:49:20;;;;;;;14.15;3.62;;;;;;;8.01;43.67;102024.98;1741348;81;20999;-70
2021/10/09 07:51:47;;;;;;;10.40;2.90;;;;;;;8.18;43.99;102020.28;1737802;81;21391;-70
2021/10/09 07:54:14;;;;;;;9.00;3.00;;;;;;;8.36;43.58;102016.04;1708163;82;21082;-72
2021/10/09 07:56:40;;;;;;;12.73;2.87;;;;;;;8.58;43.50;102015.93;1708520;83;22778;-73
2021/10/09 07:59:07;;;;;;;8.58;2.42;;;;;;;8.78;42.92;102020.30;1707805;84;21169;-70
2021/10/09 08:01:33;;;;;;;4.83;2.47;;;;;;;9.02;42.58;102011.73;1741290;81;21061;-70
2021/10/09 08:04:00;;;;;;;6.17;2.30;;;;;;;9.26;41.79;102013.66;1694341;84;21058;-70
2021/10/09 08:06:27;;;;;;;6.25;2.30;;;;;;;9.43;38.44;102019.84;1698520;82;21106;-70
2021/10/09 08:08:55;;;;;;;4.42;1.95;;;;;;;9.53;38.53;102013.66;1733190;81;21612;-70
2021/10/09 08:11:21;;;;;;;6.95;2.70;;;;;;;9.65;38.82;102011.76;1721760;83;21028;-71
2021/10/09 08:13:48;;;;;;;6.08;2.10;;;;;;;9.82;39.04;102015.32;1753250;81;21197;-74
2021/10/09 08:16:14;;;;;;;7.28;2.33;;;;;;;9.93;37.55;102011.67;1671817;84;21047;-72
2021/10/09 08:18:42;;;;;;;5.37;2.20;;;;;;;9.95;36.97;102001.45;1729168;81;21419;-70
2021/10/09 08:21:08;;;;;;;5.12;2.20;;;;;;;9.99;37.13;102006.09;1696407;82;22652;-73
2021/10/09 08:23:43;;;;;;;6.03;2.02;;;;;;;10.03;37.55;102006.31;1737605;81;21456;-72
2021/10/09 08:39:35;;;;;;;4.12;1.60;;;;;;;10.65;36.68;101991.64;1727952;82;21501;-70
2021/10/09 08:42:01;;;;;;;6.37;2.00;;;;;;;10.75;36.52;101989.35;1734694;82;21434;-69
2021/10/09 08:44:28;;;;;;;5.87;1.90;;;;;;;10.79;35.97;101987.77;1790300;78;21097;-70
2021/10/09 08:46:54;;;;;;;5.70;1.60;;;;;;;10.78;36.07;101993.14;1815592;78;22789;-70
2021/10/09 08:49:21;;;;;;;5.58;1.77;;;;;;;10.73;34.82;101993.88;1797486;78;21046;-69
2021/10/09 08:51:47;;;;;;;8.25;2.05;;;;;;;10.66;35.18;101992.02;1752733;80;20928;-69
2021/10/09 08:54:14;;;;;;;3.83;2.05;;;;;;;10.60;34.76;101987.91;1779708;80;21040;-69
2021/10/09 08:56:47;;;;;;;6.42;1.90;;;;;;;10.60;35.38;101991.02;1754024;81;20992;-71
2021/10/09 08:59:26;;;;;;;5.20;1.98;;;;;;;10.65;35.52;101988.15;1754172;81;21816;-73
2021/10/09 09:02:16;;;;;;;6.08;2.15;;;;;;;10.77;35.29;101987.00;1736192;81;20999;-70
2021/10/09 09:05:02;;;;;;;7.87;2.02;;;;;;;10.93;35.53;101984.39;1758046;81;20951;-69
2021/10/09 09:07:57;;;;;;;7.17;2.10;;;;;;;11.12;35.70;101985.06;1797106;78;21030;-70
2021/10/09 09:27:23;;;;;;;8.75;1.65;;;;;;;11.50;35.14;101971.93;1791112;78;21844;-68
2021/10/09 09:35:06;;;;;;;3.37;1.47;;;;;;;11.53;34.55;101967.30;1755377;80;21509;-69
2021/10/09 09:37:44;;;;;;;9.33;1.40;;;;;;;11.61;35.01;101973.48;1746595;80;21025;-71
2021/10/09 09:40:15;;;;;;;6.80;1.50;;;;;;;11.78;34.97;101973.82;1756783;80;21846;-68
2021/10/09 09:42:50;;;;;;;4.62;1.40;;;;;;;11.96;34.85;101977.55;1698089;83;21043;-66
2021/10/09 09:45:25;;;;;;;4.95;1.60;;;;;;;12.08;33.78;101969.37;1698209;83;20952;-67
2021/10/09 09:47:56;;;;;;;4.47;1.20;;;;;;;12.12;33.11;101959.43;1731432;81;21075;-68
2021/10/09 09:50:22;;;;;;;5.78;1.27;;;;;;;12.15;33.00;101960.56;1736399;81;21056;-67
2021/10/09 09:52:49;;;;;;;4.47;1.35;;;;;;;12.23;32.19;101959.15;1732753;81;21836;-68
2021/10/09 09:55:17;;;;;;;4.42;1.50;;;;;;;12.36;32.92;101961.08;1746131;81;21343;-68
2021/10/09 09:57:44;;;;;;;5.17;1.45;;;;;;;12.54;33.14;101958.58;1710258;81;21031;-68
2021/10/09 10:00:15;;;;;;;8.75;2.05;;;;;;;12.67;31.98;101953.38;1761212;81;21082;-68
2021/10/09 10:02:52;;;;;;;6.97;1.50;;;;;;;12.53;31.64;101953.75;1748234;81;21043;-68
2021/10/09 10:05:22;;;;;;;3.60;1.45;;;;;;;12.43;31.68;101951.30;1746043;81;21787;-68
2021/10/09 10:07:49;;;;;;;4.20;1.40;;;;;;;12.32;31.31;101955.94;1748345;81;20956;-68
2021/10/09 10:10:15;;;;;;;8.33;1.40;;;;;;;12.29;31.87;101947.34;1739762;81;20944;-68
2021/10/09 10:12:46;;;;;;;3.37;1.55;;;;;;;12.32;31.81;101949.31;1735581;81;21053;-68
2021/10/09 10:15:13;;;;;;;5.33;1.35;;;;;;;12.41;31.87;101948.37;1742455;81;21489;-77
2021/10/09 10:17:46;;;;;;;3.33;1.42;;;;;;;12.50;31.75;101946.00;1753148;81;21850;-67
2021/10/09 10:20:19;;;;;;;4.17;1.55;;;;;;;12.52;31.37;101935.30;1756611;81;21023;-68
2021/10/09 10:22:54;;;;;;;7.10;1.40;;;;;;;12.57;31.58;101937.20;1745822;81;20955;-67
2021/10/09 10:25:31;;;;;;;3.47;1.40;;;;;;;12.65;31.84;101938.91;1735382;81;21028;-71
2021/10/09 10:28:08;;;;;;;5.92;1.42;;;;;;;12.74;31.92;101930.81;1754069;81;20943;-68
2021/10/09 10:30:40;;;;;;;11.83;1.52;;;;;;;12.82;32.00;101937.80;1755383;81;21798;-70
2021/10/09 10:33:17;;;;;;;5.92;1.70;;;;;;;12.95;32.03;101936.56;1744230;81;21456;-69
2021/10/09 10:35:47;;;;;;;4.17;1.50;;;;;;;13.04;31.21;101931.99;1755440;81;20999;-69
2021/10/09 10:38:33;;;;;;;7.10;1.73;;;;;;;13.14;30.58;101925.98;1722391;81;21415;-68
2021/10/09 10:40:58;;;;;;;7.97;1.92;;;;;;;13.18;29.93;101929.28;1749421;81;20965;-68
2021/10/09 10:49:24;;;;;;;6.70;1.60;;;;;;;13.28;29.49;101921.59;1740056;81;20988;-70
2021/10/09 10:52:11;;;;;;;3.25;1.60;;;;;;;13.44;28.84;101925.79;1757602;81;21351;-72
2021/10/09 10:57:04;;;;;;;4.80;1.57;;;;;;;13.95;29.25;101925.86;1729481;83;21784;-69
2021/10/09 10:59:54;;;;;;;5.62;1.30;;;;;;;14.24;29.60;101922.50;1728243;83;21430;-70
2021/10/09 11:02:36;;;;;;;3.62;1.15;;;;;;;14.43;28.67;101909.24;1748486;81;21056;-69
2021/10/09 11:05:06;;;;;;;3.72;1.27;;;;;;;14.55;28.98;101909.72;1756710;81;21508;-69
2021/10/09 11:07:36;;;;;;;5.05;1.32;;;;;;;14.69;28.36;101908.27;1759567;81;20984;-70
2021/10/09 11:10:18;;;;;;;4.37;1.30;;;;;;;14.73;28.47;101911.54;1743645;81;22438;-69
2021/10/09 11:12:47;;;;;;;5.05;0.93;;;;;;;14.72;26.82;101910.69;1731591;81;20948;-69
2021/10/09 11:15:19;;;;;;;4.03;1.15;;;;;;;14.52;26.87;101913.45;1729253;83;21003;-69
2021/10/09 11:18:03;;;;;;;3.65;1.35;;;;;;;14.34;27.25;101910.74;1733967;81;21485;-69
2021/10/09 11:20:37;;;;;;;3.17;1.30;;;;;;;14.38;28.51;101913.58;1737842;81;21078;-70
2021/10/09 11:23:04;;;;;;;;;;;;;;;14.46;26.93;101908.56;1736543;81;21842;-69
2021/10/09 11:25:40;;;;;;;4.05;1.20;;;;;;;14.42;27.73;101912.86;1728300;83;20524;-69
2021/10/09 11:28:19;;;;;;;5.53;1.40;;;;;;;14.47;26.86;101904.09;1750681;81;20971;-68
2021/10/09 11:30:46;;;;;;;3.25;1.20;;;;;;;14.59;28.09;101909.41;1759462;81;21411;-68
2021/10/09 11:33:12;;;;;;;5.53;1.35;;;;;;;14.89;27.33;101902.82;1734012;81;21509;-69
2021/10/09 11:35:41;;;;;;;7.45;1.40;;;;;;;15.08;26.96;101901.83;1742780;81;22538;-68
2021/10/09 11:38:26;;;;;;;4.90;1.55;;;;;;;15.25;26.33;101907.23;1706439;82;20974;-71
2021/10/09 11:41:00;;;;;;;4.97;1.35;;;;;;;15.25;25.68;101903.25;1729022;83;21457;-69
2021/10/09 11:43:46;;;;;;;8.78;1.30;;;;;;;15.34;25.90;101903.86;1728610;81;21546;-71
2021/10/09 11:55:02;;;;;;;4.65;1.17;;;;;;;15.52;25.54;101896.78;1754914;81;21032;-70
2021/10/09 11:57:06;;;;;;;3.47;1.10;;;;;;;15.62;25.96;101890.67;1726209;80;21032;-68
2021/10/09 11:59:40;;;;;;;2.10;1.20;;;;;;;15.51;25.15;101887.95;1742153;81;21042;-70
2021/10/09 12:02:08;;;;;;;5.40;1.10;;;;;;;15.27;25.06;101888.00;1716966;83;21863;-68
2021/10/09 12:04:35;;;;;;;2.20;1.20;;;;;;;15.26;25.87;101884.13;1727984;81;21396;-69
2021/10/09 12:07:09;;;;;;;2.37;1.20;;;;;;;15.52;26.19;101885.64;1727749;82;21035;-68
2021/10/09 12:09:45;;;;;;;3.17;1.30;;;;;;;15.80;25.80;101888.89;1730938;81;21479;-69
2021/10/09 12:12:24;;;;;;;5.58;1.25;;;;;;;15.96;25.01;101886.26;1683688;84;21094;-70
2021/10/09 12:14:52;;;;;;;4.45;1.57;;;;;;;16.07;25.50;101881.91;1707372;82;21797;-69
2021/10/09 12:17:21;;;;;;;4.78;1.45;;;;;;;16.29;25.63;101877.89;1749287;81;21372;-70
2021/10/09 12:20:04;;;;;;;2.52;1.50;;;;;;;16.48;24.43;101872.78;1715740;81;20975;-69
2021/10/09 12:22:44;;;;;;;2.95;1.57;;;;;;;16.58;24.04;101882.22;1744651;81;21466;-73
2021/10/09 12:25:25;;;;;;;2.95;1.50;;;;;;;16.62;24.31;101870.84;1734540;81;21114;-68
2021/10/09 12:27:58;;;;;;;5.70;1.70;;;;;;;16.76;24.66;101866.09;1734173;81;21764;-68
2021/10/09 12:30:46;;;;;;;2.25;1.50;;;;;;;16.88;24.75;101857.55;1753213;81;21427;-68
2021/10/09 12:33:35;;;;;;;4.03;1.40;;;;;;;16.90;25.50;101855.63;1739590;80;21039;-72
2021/10/09 12:39:25;;;;;;;3.90;1.65;;;;;;;16.65;24.58;101855.91;1746666;81;21015;-71
2021/10/09 12:41:54;;;;;;;4.67;1.40;;;;;;;16.50;25.50;101856.65;1750042;81;21857;-70
2021/10/09 12:44:21;;;;;;;4.50;1.45;;;;;;;16.48;25.52;101858.11;1743457;81;21136;-70
2021/10/09 12:46:48;;;;;;;3.02;1.50;;;;;;;16.46;25.05;101857.39;1722050;81;21032;-72
2021/10/09 12:49:14;;;;;;;4.00;1.37;;;;;;;16.31;25.14;101857.31;1732687;81;21027;-69
2021/10/09 12:51:42;;;;;;;5.08;1.35;;;;;;;16.19;25.03;101852.94;1736257;81;21032;-69
2021/10/09 12:54:09;;;;;;;3.42;1.32;;;;;;;15.92;25.32;101852.84;1745394;81;21988;-71
2021/10/09 12:56:36;;;;;;;3.87;1.45;;;;;;;15.72;25.12;101852.19;1749627;80;22035;-71
2021/10/09 12:59:03;;;;;;;2.65;1.40;;;;;;;15.52;24.87;101856.84;1725238;81;21000;-71
2021/10/09 13:01:31;;;;;;;3.55;1.77;;;;;;;15.27;25.29;101855.22;1752326;81;21030;-70
2021/10/09 13:03:57;;;;;;;3.17;1.50;;;;;;;15.14;25.95;101853.94;1780718;80;21451;-70
2021/10/09 13:06:24;;;;;;;4.83;1.60;;;;;;;15.06;26.49;101848.36;1738741;81;21825;-74
2021/10/09 13:08:50;;;;;;;5.00;1.70;;;;;;;14.99;26.70;101844.45;1741449;81;21023;-71
2021/10/09 13:11:24;;;;;;;7.55;1.87;;;;;;;14.86;27.27;101848.48;1726148;81;21035;-72
2021/10/09 13:13:45;;;;;;;4.78;1.82;;;;;;;14.69;26.83;101845.77;1734530;81;21012;-72
2021/10/09 13:16:13;;;;;;;5.83;2.27;;;;;;;14.52;27.19;101845.66;1738711;81;21074;-71
2021/10/09 13:18:40;;;;;;;3.95;2.12;;;;;;;14.42;27.02;101846.41;1745160;80;21811;-72
2021/10/09 13:21:06;;;;;;;3.90;2.30;;;;;;;14.22;27.07;101846.03;1737250;81;21446;-71
2021/10/09 13:23:33;;;;;;;4.50;2.33;;;;;;;14.09;27.30;101839.89;1729503;81;21012;-72
2021/10/09 13:26:00;;;;;;;4.90;2.02;;;;;;;14.02;27.96;101850.58;1725001;81;21011;-72
2021/10/09 13:28:26;;;;;;;6.97;2.00;;;;;;;13.93;28.23;101841.92;1739499;81;21047;-71
2021/10/09 13:30:53;;;;;;;6.15;1.82;;;;;;;13.85;28.27;101839.80;1732154;81;22179;-74
2021/10/09 13:33:20;;;;;;;4.85;2.27;;;;;;;13.77;28.31;101850.58;1736944;81;21561;-73
2021/10/09 13:35:47;;;;;;;4.42;1.85;;;;;;;13.65;28.65;101841.66;1767044;80;21032;-71
2021/10/09 13:38:14;;;;;;;3.75;2.00;;;;;;;13.56;28.82;101839.16;1764853;80;21071;-71
2021/10/09 13:40:41;;;;;;;4.70;1.80;;;;;;;13.46;28.76;101840.75;1766385;80;20967;-72
2021/10/09 13:43:11;;;;;;;3.35;1.80;;;;;;;13.36;28.86;101841.00;1730453;81;22515;-70